Time;durP1;ratioP1;P1;durP2;ratioP2;P2;SDS_P1;SDS_P2;PMS_P1;PMS_P2;Temp;Humidity;BMP_temperature;BMP_pressure;BME280_temperature;BME280_humidity;BME280_pressure;Samples;Min_cycle;Max_cycle;Signal;HPM_P1;HPM_P2
2023/05/22 00:00:12;;;;;;;6.40;5.40;;;;;;;17.58;67.97;99792.84;5114069;28;20058;-75
2023/05/22 00:02:41;;;;;;;6.75;5.65;;;;;;;17.60;67.83;99793.56;5113844;28;20107;-75
2023/05/22 00:05:12;;;;;;;7.57;5.55;;;;;;;17.71;67.98;99817.34;5114002;28;20051;-75
2023/05/22 00:07:38;;;;;;;8.35;5.13;;;;;;;17.52;67.90;99795.09;5113907;28;20027;-75
2023/05/22 00:10:04;;;;;;;7.88;4.55;;;;;;;17.58;67.71;99805.19;5113549;28;20028;-75
2023/05/22 00:12:29;;;;;;;6.65;5.03;;;;;;;17.62;67.70;99814.53;5113741;28;20101;-75
2023/05/22 00:14:55;;;;;;;5.95;4.68;;;;;;;17.42;67.67;99787.84;5113283;28;20483;-75
2023/05/22 00:17:20;;;;;;;16.55;5.25;;;;;;;17.35;66.92;99789.25;5113573;28;20032;-75
2023/05/22 00:19:46;;;;;;;5.65;4.50;;;;;;;17.44;67.01;99803.53;5113905;28;20080;-75
2023/05/22 00:22:11;;;;;;;5.70;4.78;;;;;;;17.45;66.95;99795.53;5113655;28;20399;-75
2023/05/22 00:24:37;;;;;;;7.65;4.63;;;;;;;17.30;66.39;99775.59;5113652;28;20034;-75
2023/05/22 00:27:03;;;;;;;5.78;4.60;;;;;;;17.28;66.26;99777.50;5113279;28;20751;-75
2023/05/22 00:29:28;;;;;;;5.05;4.35;;;;;;;17.29;65.85;99784.44;5113375;28;20110;-75
2023/05/22 00:31:54;;;;;;;8.05;4.35;;;;;;;17.31;65.77;99782.53;5113049;28;20031;-75
2023/05/22 00:34:19;;;;;;;6.38;4.10;;;;;;;17.32;65.20;99789.50;5113317;28;20027;-75
2023/05/22 00:36:45;;;;;;;7.93;4.53;;;;;;;17.34;65.27;99792.84;5113250;28;20020;-75
2023/05/22 00:39:10;;;;;;;6.78;4.50;;;;;;;17.35;65.09;99796.31;5113254;28;20031;-75
2023/05/22 00:41:37;;;;;;;6.65;4.53;;;;;;;17.37;64.56;99810.22;5113555;28;20028;-75
2023/05/22 00:44:02;;;;;;;6.90;4.20;;;;;;;17.10;64.37;99755.94;5112984;28;20051;-75
2023/05/22 00:46:28;;;;;;;4.90;3.90;;;;;;;17.31;64.23;99787.78;5112963;28;20093;-75
2023/05/22 00:48:53;;;;;;;5.95;4.22;;;;;;;17.30;64.11;99786.13;5112872;28;20027;-75
2023/05/22 00:51:23;;;;;;;5.22;4.20;;;;;;;17.39;63.90;99792.50;5113054;28;20070;-75
2023/05/22 00:53:49;;;;;;;5.25;4.20;;;;;;;17.34;63.54;99794.63;5112139;28;20397;-75
2023/05/22 00:56:16;;;;;;;6.43;4.20;;;;;;;17.26;63.49;99783.81;5112939;28;20093;-75
2023/05/22 00:58:41;;;;;;;6.72;3.75;;;;;;;17.31;63.28;99795.69;5112856;28;20027;-75
2023/05/22 01:01:10;;;;;;;7.80;4.05;;;;;;;17.16;62.88;99767.84;5112878;28;20498;-75
2023/05/22 01:03:41;;;;;;;6.68;3.88;;;;;;;17.25;62.76;99782.97;5113082;28;20031;-75
2023/05/22 01:06:06;;;;;;;7.70;4.78;;;;;;;17.29;62.26;99799.41;5112785;28;20097;-75
2023/05/22 01:08:32;;;;;;;5.40;4.40;;;;;;;17.36;62.59;99800.63;5112821;28;20028;-75
2023/05/22 01:11:11;;;;;;;4.97;4.30;;;;;;;17.28;62.60;99803.00;5112355;28;20063;-75
2023/05/22 01:13:52;;;;;;;6.30;4.00;;;;;;;17.20;62.37;99790.38;5112427;28;20055;-75
2023/05/22 01:16:20;;;;;;;4.28;3.78;;;;;;;17.26;61.60;99799.59;5112866;28;20034;-75
2023/05/22 01:19:17;;;;;;;6.57;4.40;;;;;;;17.07;61.67;99779.03;5112485;28;20295;-75
2023/05/22 01:21:55;;;;;;;6.68;4.60;;;;;;;17.12;61.38;99787.44;5112602;28;20120;-75
2023/05/22 01:24:40;;;;;;;7.00;4.03;;;;;;;17.17;60.98;99794.06;5112725;28;20110;-75
2023/05/22 01:27:24;;;;;;;5.43;4.28;;;;;;;17.25;60.85;99798.78;5112329;28;20039;-75
2023/05/22 01:30:02;;;;;;;6.43;4.30;;;;;;;17.25;60.72;99803.19;5112089;28;20063;-75
2023/05/22 01:32:30;;;;;;;4.18;3.58;;;;;;;17.21;61.00;99798.16;5112532;28;20023;-75
2023/05/22 01:35:00;;;;;;;6.43;4.03;;;;;;;17.23;60.80;99795.38;5112560;28;20035;-75
2023/05/22 01:37:26;;;;;;;5.82;4.30;;;;;;;17.07;60.86;99792.19;5112482;28;20049;-75
2023/05/22 01:39:53;;;;;;;4.90;3.75;;;;;;;17.17;60.96;99803.75;5112207;28;20031;-75
2023/05/22 01:42:19;;;;;;;4.80;3.75;;;;;;;17.02;60.89;99775.88;5112250;28;20027;-75
2023/05/22 01:44:44;;;;;;;8.20;4.25;;;;;;;17.16;61.10;99802.91;5112244;28;20072;-75
2023/05/22 01:47:10;;;;;;;5.45;3.88;;;;;;;17.06;60.77;99788.69;5112296;28;20023;-75
2023/05/22 01:49:36;;;;;;;6.15;4.05;;;;;;;17.09;60.74;99793.75;5112378;28;20047;-75
2023/05/22 01:52:17;;;;;;;4.97;4.18;;;;;;;17.10;60.92;99794.59;5112038;28;20016;-75
2023/05/22 01:54:51;;;;;;;6.22;4.50;;;;;;;16.96;61.06;99787.69;5093036;28;20391;-75
2023/05/22 01:57:23;;;;;;;7.85;4.13;;;;;;;17.06;60.87;99790.50;5111993;28;20039;-75
2023/05/22 02:00:06;;;;;;;4.22;3.90;;;;;;;17.05;60.73;99780.94;5112060;28;20031;-75
2023/05/22 02:02:34;;;;;;;6.10;4.10;;;;;;;17.03;60.96;99788.94;5112281;28;20081;-75
2023/05/22 02:05:03;;;;;;;7.07;4.03;;;;;;;16.82;60.93;99754.47;5114411;28;20391;-75
2023/05/22 02:07:31;;;;;;;5.18;3.95;;;;;;;16.82;61.27;99774.69;5116162;28;20024;-75
2023/05/22 02:09:57;;;;;;;5.00;4.13;;;;;;;16.92;60.91;99792.31;5116074;28;20031;-75
2023/05/22 02:12:23;;;;;;;8.02;3.95;;;;;;;16.73;60.97;99780.56;5080318;28;20491;-75
2023/05/22 02:14:50;;;;;;;8.93;4.57;;;;;;;16.79;61.44;99793.28;5115966;28;20178;-75
2023/05/22 02:17:16;;;;;;;5.18;3.70;;;;;;;16.67;61.37;99774.75;5116185;28;20015;-75
2023/05/22 02:19:43;;;;;;;5.07;4.13;;;;;;;16.76;61.37;99789.09;5115992;28;20375;-75
2023/05/22 02:22:12;;;;;;;5.35;4.10;;;;;;;16.74;61.42;99784.91;5115849;28;20026;-75
2023/05/22 02:24:38;;;;;;;8.75;4.88;;;;;;;16.74;61.71;99795.41;5116144;28;20024;-75
2023/05/22 02:27:04;;;;;;;4.57;3.40;;;;;;;16.64;61.71;99796.03;5115675;28;20023;-75
2023/05/22 02:29:29;;;;;;;6.25;3.58;;;;;;;16.56;61.71;99782.56;5115855;28;20502;-75
2023/05/22 02:31:55;;;;;;;8.55;4.05;;;;;;;16.60;61.99;99805.06;5115465;28;20019;-75
2023/05/22 02:34:20;;;;;;;5.32;4.82;;;;;;;16.55;61.72;99793.16;5115610;28;20035;-75
2023/05/22 02:36:46;;;;;;;5.70;4.03;;;;;;;16.44;61.41;99779.00;5115655;28;20122;-75
2023/05/22 02:39:12;;;;;;;5.80;4.05;;;;;;;16.39;61.66;99780.22;5115578;28;20065;-75
2023/05/22 02:41:37;;;;;;;5.10;4.43;;;;;;;16.36;61.44;99785.72;5115755;28;20059;-75
2023/05/22 02:44:03;;;;;;;3.97;3.42;;;;;;;16.42;61.51;99785.28;5115435;28;20460;-75
2023/05/22 02:46:28;;;;;;;4.65;4.05;;;;;;;16.38;61.49;99783.81;5115472;28;20450;-75
2023/05/22 02:48:53;;;;;;;6.65;4.10;;;;;;;16.29;61.51;99766.88;5062281;28;20043;-75
2023/05/22 02:51:19;;;;;;;4.65;3.83;;;;;;;16.35;61.16;99782.25;5115203;28;20031;-75
2023/05/22 02:53:44;;;;;;;5.75;4.10;;;;;;;16.27;61.07;99758.28;5115554;28;20024;-75
2023/05/22 02:56:10;;;;;;;4.60;3.88;;;;;;;16.37;61.13;99775.09;5115072;28;20160;-75
2023/05/22 02:58:36;;;;;;;5.20;4.05;;;;;;;16.29;60.79;99766.06;5115416;28;20042;-75
2023/05/22 03:01:02;;;;;;;5.20;3.88;;;;;;;16.36;60.99;99773.41;5115048;28;20020;-75
2023/05/22 03:03:28;;;;;;;9.00;4.57;;;;;;;16.23;60.85;99761.22;5115137;28;20084;-75
2023/05/22 03:05:57;;;;;;;6.47;3.65;;;;;;;16.31;61.09;99793.94;5115131;28;20058;-75
2023/05/22 03:08:23;;;;;;;4.75;3.72;;;;;;;16.28;60.80;99769.63;5115222;28;20031;-75
2023/05/22 03:10:48;;;;;;;5.80;4.43;;;;;;;16.32;60.80;99765.84;5115145;28;20028;-75
2023/05/22 03:13:13;;;;;;;4.75;3.85;;;;;;;16.16;60.93;99748.50;5114499;28;20047;-75
2023/05/22 03:15:39;;;;;;;4.70;3.50;;;;;;;16.31;60.98;99780.78;5114239;28;20024;-75
2023/05/22 03:18:04;;;;;;;4.63;4.10;;;;;;;16.21;60.78;99759.53;5114587;28;20461;-75
2023/05/22 03:20:30;;;;;;;4.53;3.75;;;;;;;16.36;60.76;99783.94;5078574;28;20080;-75
2023/05/22 03:22:55;;;;;;;5.43;4.13;;;;;;;16.35;60.84;99781.38;5114684;28;20482;-75
2023/05/22 03:25:21;;;;;;;5.20;4.43;;;;;;;15.96;60.88;99718.31;5114914;28;20027;-75
2023/05/22 03:27:46;;;;;;;4.95;3.70;;;;;;;16.13;60.91;99758.34;5115067;28;20028;-75
2023/05/22 03:30:12;;;;;;;5.07;4.03;;;;;;;16.10;61.03;99748.09;5114375;28;20023;-75
2023/05/22 03:32:38;;;;;;;5.40;4.15;;;;;;;16.16;60.99;99752.91;5114494;28;20111;-75
2023/05/22 03:35:04;;;;;;;4.93;3.92;;;;;;;16.28;61.10;99764.38;5114423;28;20107;-75
2023/05/22 03:37:29;;;;;;;7.63;3.45;;;;;;;16.34;61.04;99782.34;5114689;28;20066;-75
2023/05/22 03:39:55;;;;;;;6.25;4.22;;;;;;;16.15;61.07;99759.94;5114264;28;20055;-76
2023/05/22 03:42:20;;;;;;;5.05;3.83;;;;;;;16.32;60.99;99773.75;5114544;28;20088;-75
2023/05/22 03:44:45;;;;;;;5.75;3.88;;;;;;;16.16;61.01;99745.88;5114133;28;20031;-75
2023/05/22 03:47:11;;;;;;;6.68;4.22;;;;;;;16.25;60.69;99746.19;5113835;28;20059;-75
2023/05/22 03:49:36;;;;;;;6.68;4.15;;;;;;;16.29;60.93;99750.28;5113889;28;20024;-75
2023/05/22 03:52:02;;;;;;;6.57;3.85;;;;;;;16.46;60.54;99777.09;5114034;28;20023;-75
2023/05/22 03:54:27;;;;;;;5.22;3.65;;;;;;;16.42;60.59;99762.47;5114255;28;20023;-75
2023/05/22 03:56:53;;;;;;;4.60;3.60;;;;;;;16.37;60.23;99747.97;5114201;28;20031;-75
2023/05/22 03:59:18;;;;;;;7.72;4.03;;;;;;;16.60;60.21;99772.66;5113912;28;20065;-75
2023/05/22 04:01:45;;;;;;;5.07;3.65;;;;;;;16.67;59.94;99768.66;5114100;28;20023;-75
2023/05/22 04:04:11;;;;;;;4.75;4.15;;;;;;;16.71;59.64;99746.44;5113735;28;20030;-75
2023/05/22 04:06:41;;;;;;;8.27;4.25;;;;;;;17.17;58.72;99737.94;5113765;28;20032;-75
2023/05/22 04:09:09;;;;;;;6.73;4.00;;;;;;;18.12;56.76;99754.63;5113742;28;20106;-75
2023/05/22 04:11:34;;;;;;;4.72;3.78;;;;;;;18.94;55.15;99760.56;5114025;28;20020;-75
2023/05/22 04:14:02;;;;;;;7.72;4.70;;;;;;;19.51;53.85;99758.59;5113301;28;20135;-75
2023/05/22 04:16:28;;;;;;;6.18;3.60;;;;;;;19.52;53.18;99753.19;5113720;28;20034;-75
2023/05/22 04:18:53;;;;;;;4.38;3.83;;;;;;;19.50;52.75;99763.03;5113573;28;20032;-75
2023/05/22 04:21:18;;;;;;;5.18;3.60;;;;;;;19.44;53.07;99761.75;5113537;28;20024;-75
2023/05/22 04:23:44;;;;;;;6.22;4.20;;;;;;;19.36;53.14;99756.25;5113460;28;20036;-75
2023/05/22 04:26:09;;;;;;;6.03;4.75;;;;;;;19.47;52.47;99742.19;5113227;28;20360;-75
2023/05/22 04:28:35;;;;;;;5.00;3.58;;;;;;;20.05;52.07;99742.63;5112569;28;20436;-75
2023/05/22 04:31:01;;;;;;;5.32;3.40;;;;;;;21.07;49.71;99759.41;5113133;28;20036;-75
2023/05/22 04:33:27;;;;;;;4.85;3.80;;;;;;;21.84;48.26;99742.75;5113216;28;20088;-75
2023/05/22 04:35:53;;;;;;;3.67;3.28;;;;;;;22.59;47.15;99753.50;5113406;28;20464;-75
2023/05/22 04:38:18;;;;;;;4.07;3.72;;;;;;;22.42;46.88;99741.81;5113030;28;20068;-75
2023/05/22 04:40:44;;;;;;;7.93;3.53;;;;;;;22.06;47.37;99741.59;5113322;28;20028;-75
2023/05/22 04:43:11;;;;;;;5.10;3.70;;;;;;;21.77;47.79;99740.78;5113201;28;20079;-75
2023/05/22 04:45:36;;;;;;;5.10;3.17;;;;;;;21.67;48.25;99740.81;5113073;28;20024;-75
2023/05/22 04:48:02;;;;;;;4.22;3.75;;;;;;;21.68;47.63;99753.06;5112863;28;20024;-75
2023/05/22 04:50:31;;;;;;;3.70;3.30;;;;;;;22.02;47.18;99740.19;5113059;28;20416;-75
2023/05/22 04:52:58;;;;;;;6.65;3.45;;;;;;;22.73;46.51;99737.06;5113160;28;20471;-75
2023/05/22 04:55:23;;;;;;;5.13;3.70;;;;;;;24.05;44.09;99751.53;5112945;28;20035;-75
2023/05/22 04:57:49;;;;;;;5.40;3.30;;;;;;;24.79;43.19;99749.31;5112982;28;20035;-75
2023/05/22 05:00:15;;;;;;;7.18;4.28;;;;;;;24.83;42.79;99745.34;5112658;28;20028;-75
2023/05/22 05:02:41;;;;;;;3.55;3.25;;;;;;;24.44;43.75;99747.63;5112649;28;20419;-75
2023/05/22 05:05:07;;;;;;;4.45;4.05;;;;;;;23.81;43.71;99752.19;5112891;28;20016;-75
2023/05/22 05:07:36;;;;;;;8.50;4.57;;;;;;;23.38;44.16;99742.28;5112718;28;20051;-75
2023/05/22 05:10:01;;;;;;;4.22;3.47;;;;;;;23.49;44.56;99757.19;5112363;28;20024;-75
2023/05/22 05:12:26;;;;;;;5.72;3.95;;;;;;;23.68;44.91;99757.03;5113000;28;20352;-75
2023/05/22 05:14:52;;;;;;;4.70;4.05;;;;;;;24.21;44.11;99766.78;5112461;28;20040;-75
2023/05/22 05:17:17;;;;;;;5.18;4.30;;;;;;;25.05;43.12;99742.06;5112159;28;20106;-76
2023/05/22 05:19:43;;;;;;;7.55;3.45;;;;;;;26.20;41.37;99750.19;5112769;28;20062;-75
2023/05/22 05:22:08;;;;;;;4.22;3.75;;;;;;;26.12;41.21;99746.56;5112410;28;20108;-75
2023/05/22 05:24:33;;;;;;;4.95;4.18;;;;;;;25.82;42.37;99745.38;5112433;28;20027;-75
2023/05/22 05:26:58;;;;;;;5.35;3.75;;;;;;;25.57;42.08;99746.34;5112496;28;20058;-75
2023/05/22 05:29:24;;;;;;;6.13;4.07;;;;;;;25.75;42.58;99760.38;5112086;28;20023;-75
2023/05/22 05:31:49;;;;;;;6.50;4.45;;;;;;;25.64;42.19;99750.03;5112304;28;20088;-75
2023/05/22 05:34:15;;;;;;;5.18;3.90;;;;;;;25.79;42.06;99744.91;5112312;28;20023;-75
2023/05/22 05:36:40;;;;;;;6.10;4.40;;;;;;;26.33;41.32;99772.69;5112221;28;20024;-75
2023/05/22 05:39:06;;;;;;;5.07;3.67;;;;;;;26.51;40.37;99764.50;5111787;28;20031;-75
2023/05/22 05:41:31;;;;;;;4.50;3.92;;;;;;;26.31;41.18;99765.88;5112348;28;20115;-75
2023/05/22 05:43:58;;;;;;;6.28;4.15;;;;;;;25.70;41.64;99743.19;5112216;28;20050;-75
2023/05/22 05:46:24;;;;;;;4.55;3.97;;;;;;;24.81;43.13;99749.97;5111750;28;20025;-75
2023/05/22 05:48:49;;;;;;;6.90;4.95;;;;;;;24.37;44.51;99768.72;5112135;28;20031;-75
2023/05/22 05:51:15;;;;;;;21.15;9.32;;;;;;;23.74;45.96;99756.44;5112038;28;20090;-75
2023/05/22 05:53:40;;;;;;;7.35;4.78;;;;;;;23.55;46.03;99749.41;5112223;28;20479;-75
2023/05/22 05:56:07;;;;;;;6.28;3.83;;;;;;;23.95;45.58;99773.91;5111865;28;20114;-75
2023/05/22 05:58:32;;;;;;;7.22;4.50;;;;;;;24.34;45.18;99766.34;5112118;28;20024;-75
2023/05/22 06:00:58;;;;;;;7.20;4.68;;;;;;;24.92;44.44;99765.69;5112068;28;20088;-75
2023/05/22 06:03:24;;;;;;;7.32;4.07;;;;;;;24.94;44.24;99766.34;5112157;28;20090;-75
2023/05/22 06:05:50;;;;;;;5.38;4.88;;;;;;;24.63;44.85;99753.56;5112317;28;20436;-75
2023/05/22 06:08:15;;;;;;;6.35;4.50;;;;;;;24.86;44.63;99771.63;5112050;28;20024;-75
2023/05/22 06:10:40;;;;;;;5.10;4.60;;;;;;;25.17;44.58;99763.13;5111939;28;20074;-76
2023/05/22 06:13:06;;;;;;;11.55;4.63;;;;;;;25.79;43.37;99764.41;5111639;28;20031;-75
2023/05/22 06:15:31;;;;;;;4.93;4.43;;;;;;;26.62;42.67;99766.78;5111864;28;20065;-75
2023/05/22 06:17:56;;;;;;;6.43;5.20;;;;;;;27.42;41.41;99755.06;5112241;28;20156;-76
2023/05/22 06:20:23;;;;;;;6.88;4.72;;;;;;;27.66;41.11;99767.44;5111953;28;20023;-76
2023/05/22 06:22:49;;;;;;;6.13;4.43;;;;;;;27.47;41.30;99736.63;5112068;28;20043;-75
2023/05/22 06:25:15;;;;;;;6.85;4.95;;;;;;;27.20;41.94;99732.66;5111730;28;20015;-76
2023/05/22 06:27:41;;;;;;;8.13;4.57;;;;;;;27.54;41.49;99761.69;5093664;28;20028;-76
2023/05/22 06:30:07;;;;;;;7.43;4.90;;;;;;;27.91;41.22;99751.22;5111695;28;20356;-76
2023/05/22 06:32:32;;;;;;;8.45;4.95;;;;;;;29.42;39.87;99764.22;5111985;28;20375;-76
2023/05/22 06:34:58;;;;;;;5.22;4.22;;;;;;;30.77;37.85;99756.03;5101578;28;20032;-76
2023/05/22 06:37:23;;;;;;;6.00;4.95;;;;;;;31.89;36.79;99747.41;5101670;28;20039;-76
2023/05/22 06:39:48;;;;;;;7.22;4.85;;;;;;;33.21;35.46;99764.34;5108457;28;20030;-76
2023/05/22 06:42:14;;;;;;;7.97;5.40;;;;;;;34.39;34.17;99763.66;5111331;28;20027;-76
2023/05/22 06:44:39;;;;;;;7.45;4.53;;;;;;;34.98;33.18;99779.25;5104776;28;20375;-76
2023/05/22 06:47:05;;;;;;;5.13;4.63;;;;;;;35.29;32.88;99749.47;5111396;28;20106;-76
2023/05/22 06:49:30;;;;;;;7.75;4.53;;;;;;;35.65;32.82;99775.63;5100325;28;20023;-76
2023/05/22 06:51:55;;;;;;;6.90;4.72;;;;;;;36.00;32.34;99781.13;5106456;28;20451;-76
2023/05/22 06:54:21;;;;;;;4.95;4.45;;;;;;;35.89;32.20;99777.31;5115192;28;20039;-77
2023/05/22 06:56:46;;;;;;;5.68;4.53;;;;;;;35.54;32.11;99743.94;5112043;28;20035;-76
2023/05/22 06:59:11;;;;;;;5.07;4.57;;;;;;;35.82;32.05;99776.63;5114974;28;20095;-77
2023/05/22 07:01:37;;;;;;;6.93;4.38;;;;;;;35.55;31.70;99769.94;5115543;28;20036;-74
2023/05/22 07:04:04;;;;;;;7.60;4.60;;;;;;;35.77;31.95;99772.94;5115107;28;20059;-74
2023/05/22 07:06:32;;;;;;;5.50;4.50;;;;;;;36.56;31.05;99777.00;5114906;28;20036;-74
2023/05/22 07:08:58;;;;;;;9.30;5.25;;;;;;;37.01;31.08;99767.38;5114988;28;20066;-74
2023/05/22 07:11:23;;;;;;;4.70;4.25;;;;;;;37.33;30.94;99768.50;5114905;28;20063;-74
2023/05/22 07:13:48;;;;;;;6.60;5.00;;;;;;;38.23;30.21;99763.25;5115119;28;20126;-75
2023/05/22 07:16:14;;;;;;;6.80;4.80;;;;;;;37.83;29.77;99756.06;5114994;28;20019;-75
2023/05/22 07:18:40;;;;;;;5.80;4.50;;;;;;;37.92;29.31;99771.75;5115118;28;20024;-74
2023/05/22 07:21:06;;;;;;;6.00;4.38;;;;;;;37.81;30.12;99777.25;5115032;28;20063;-75
2023/05/22 07:23:31;;;;;;;9.75;4.60;;;;;;;37.52;29.61;99758.31;5114808;28;20121;-75
2023/05/22 07:25:56;;;;;;;5.38;4.88;;;;;;;37.70;30.21;99758.06;5114990;28;20024;-75
2023/05/22 07:28:22;;;;;;;6.65;3.97;;;;;;;37.93;29.63;99745.41;5114370;28;20088;-74
2023/05/22 07:30:47;;;;;;;5.57;4.43;;;;;;;37.76;29.80;99749.97;5114773;28;20061;-75
2023/05/22 07:33:12;;;;;;;4.53;4.13;;;;;;;37.99;30.01;99754.47;5114144;28;20030;-75
2023/05/22 07:35:38;;;;;;;5.13;4.63;;;;;;;39.09;29.34;99778.00;5114541;28;20033;-75
2023/05/22 07:38:03;;;;;;;5.70;4.38;;;;;;;38.58;29.55;99768.38;5114436;28;20031;-75
2023/05/22 07:40:28;;;;;;;5.85;4.45;;;;;;;38.56;30.28;99768.63;5113970;28;20034;-75
2023/05/22 07:42:54;;;;;;;5.50;4.40;;;;;;;38.68;29.40;99768.50;5114239;28;20099;-75
2023/05/22 07:45:20;;;;;;;5.00;4.50;;;;;;;38.56;28.96;99751.47;5114268;28;20058;-75
2023/05/22 07:47:45;;;;;;;5.78;4.50;;;;;;;38.11;29.37;99749.75;5114579;28;20231;-75
2023/05/22 07:50:10;;;;;;;10.43;4.60;;;;;;;38.34;29.43;99768.59;5114157;28;20071;-75
2023/05/22 07:52:36;;;;;;;5.13;4.72;;;;;;;38.31;29.34;99762.81;5114196;28;20020;-75
2023/05/22 07:55:01;;;;;;;4.88;4.43;;;;;;;38.52;29.61;99766.69;5114222;28;20032;-75
2023/05/22 07:57:28;;;;;;;4.95;4.05;;;;;;;38.82;29.17;99774.44;5113849;28;20028;-75
2023/05/22 07:59:54;;;;;;;4.80;4.40;;;;;;;38.39;29.08;99756.94;5114213;28;20032;-75
2023/05/22 08:02:19;;;;;;;4.75;4.05;;;;;;;38.12;29.95;99757.66;5113396;28;20364;-74
2023/05/22 08:04:44;;;;;;;4.70;4.07;;;;;;;37.75;29.39;99740.19;5114015;28;20115;-74
2023/05/22 08:07:10;;;;;;;6.80;4.20;;;;;;;36.90;30.05;99750.84;5113751;28;20016;-74
2023/05/22 08:09:35;;;;;;;5.65;4.32;;;;;;;35.95;31.00;99748.47;5113902;28;20031;-74
2023/05/22 08:12:01;;;;;;;5.88;4.20;;;;;;;34.54;31.78;99736.25;5113824;28;20487;-74
2023/05/22 08:14:27;;;;;;;4.47;3.97;;;;;;;33.01;33.42;99749.06;5113396;28;20047;-74
2023/05/22 08:16:52;;;;;;;4.30;3.90;;;;;;;31.37;33.58;99734.72;5113936;28;20032;-74
2023/05/22 08:19:18;;;;;;;4.35;3.95;;;;;;;30.21;35.80;99738.09;5113442;28;20136;-74
2023/05/22 08:21:43;;;;;;;4.95;3.50;;;;;;;29.07;35.93;99756.81;5113790;28;20020;-73
2023/05/22 08:24:08;;;;;;;4.75;3.85;;;;;;;28.45;36.98;99759.09;5113516;28;20115;-74
2023/05/22 08:26:34;;;;;;;6.38;3.50;;;;;;;27.72;37.16;99739.94;5113233;28;20027;-73
2023/05/22 08:29:00;;;;;;;4.95;4.10;;;;;;;27.46;37.49;99753.69;5113426;28;20035;-73
2023/05/22 08:31:26;;;;;;;4.32;3.70;;;;;;;27.34;38.75;99747.09;5113451;28;20029;-73
2023/05/22 08:33:52;;;;;;;4.15;3.75;;;;;;;27.08;38.59;99726.84;5113532;28;20034;-73
2023/05/22 08:36:17;;;;;;;5.63;3.85;;;;;;;27.14;38.41;99725.34;5113260;28;20051;-76
2023/05/22 08:38:42;;;;;;;4.97;4.00;;;;;;;27.07;37.73;99743.88;5113570;28;20036;-76
2023/05/22 08:41:09;;;;;;;4.40;3.40;;;;;;;26.73;38.29;99730.88;5113199;28;20032;-74
2023/05/22 08:43:34;;;;;;;4.40;3.83;;;;;;;26.61;38.53;99743.75;5112802;28;20026;-74
2023/05/22 08:46:04;;;;;;;5.53;3.42;;;;;;;26.53;38.20;99754.47;5113315;28;20031;-74
2023/05/22 08:48:31;;;;;;;6.13;4.00;;;;;;;26.39;38.40;99752.50;5112905;28;20031;-74
2023/05/22 08:51:01;;;;;;;7.20;4.05;;;;;;;26.12;38.89;99746.56;5113013;28;20032;-74
2023/05/22 08:53:27;;;;;;;4.03;3.40;;;;;;;25.90;38.86;99747.22;5112700;28;20027;-74
2023/05/22 08:55:53;;;;;;;4.32;3.35;;;;;;;25.69;39.78;99749.53;5112851;28;20035;-74
2023/05/22 08:58:20;;;;;;;6.10;3.60;;;;;;;25.65;38.95;99746.34;5112819;28;20034;-74
2023/05/22 09:00:46;;;;;;;6.38;3.80;;;;;;;25.43;39.68;99755.84;5112933;28;20059;-74
2023/05/22 09:03:12;;;;;;;5.25;3.90;;;;;;;25.32;39.94;99732.97;5112952;28;20059;-77
2023/05/22 09:05:39;;;;;;;6.43;3.65;;;;;;;25.13;39.20;99718.13;5112772;28;20062;-76
2023/05/22 09:08:07;;;;;;;3.95;3.30;;;;;;;25.13;40.00;99733.28;5113044;28;20107;-77
2023/05/22 09:10:33;;;;;;;4.03;3.45;;;;;;;25.12;40.06;99724.47;5112532;28;20032;-78
2023/05/22 09:13:07;;;;;;;4.82;3.55;;;;;;;25.13;40.74;99734.13;5112708;28;20027;-77
2023/05/22 09:15:36;;;;;;;11.10;3.65;;;;;;;25.10;40.36;99710.47;5112341;28;20098;-78
2023/05/22 09:18:03;;;;;;;4.82;3.13;;;;;;;25.20;39.36;99715.66;5113015;28;20107;-78
2023/05/22 09:20:28;;;;;;;4.03;3.55;;;;;;;25.18;39.38;99730.97;5112597;28;20027;-77
2023/05/22 09:22:53;;;;;;;4.80;3.08;;;;;;;24.98;39.15;99705.56;5094574;28;20031;-78
2023/05/22 09:25:20;;;;;;;3.78;3.45;;;;;;;24.85;39.88;99730.00;5112691;28;20107;-78
2023/05/22 09:27:46;;;;;;;3.97;3.25;;;;;;;24.72;40.62;99698.50;5112723;28;20031;-77
2023/05/22 09:30:18;;;;;;;5.13;3.83;;;;;;;25.03;40.48;99720.09;5112916;28;20043;-77
2023/05/22 09:32:45;;;;;;;8.40;3.80;;;;;;;24.98;39.55;99711.72;5112554;28;20027;-78
2023/05/22 09:35:12;;;;;;;6.53;3.60;;;;;;;24.89;38.42;99732.19;5112806;28;20428;-78
2023/05/22 09:37:38;;;;;;;6.18;3.65;;;;;;;24.70;39.87;99697.84;5112200;28;20054;-78
2023/05/22 09:40:09;;;;;;;4.90;3.30;;;;;;;24.59;40.28;99708.78;5112814;28;20481;-78
2023/05/22 09:42:35;;;;;;;4.97;3.20;;;;;;;24.72;39.26;99732.28;5112919;28;20485;-78
2023/05/22 09:45:06;;;;;;;5.25;3.75;;;;;;;24.50;39.78;99729.22;5112499;28;20047;-77
2023/05/22 09:47:33;;;;;;;5.13;3.55;;;;;;;24.48;40.26;99715.22;5112313;28;20115;-77
2023/05/22 09:49:59;;;;;;;6.53;3.53;;;;;;;24.55;41.05;99702.94;5112392;28;20027;-78
2023/05/22 09:52:27;;;;;;;6.55;3.67;;;;;;;24.78;41.39;99713.03;5112314;28;20024;-78
2023/05/22 09:54:55;;;;;;;3.85;3.53;;;;;;;24.78;41.43;99697.88;5112469;28;20038;-75
2023/05/22 09:57:23;;;;;;;5.13;3.42;;;;;;;24.63;40.62;99671.00;5112130;28;20023;-75
2023/05/22 09:59:53;;;;;;;6.07;3.60;;;;;;;24.65;40.34;99692.16;5112129;28;20485;-75
2023/05/22 10:02:21;;;;;;;4.23;3.83;;;;;;;24.57;40.26;99698.28;5111813;28;20042;-75
2023/05/22 10:04:51;;;;;;;7.32;3.95;;;;;;;24.71;40.28;99699.50;5112288;28;20383;-77
2023/05/22 10:07:20;;;;;;;6.22;3.70;;;;;;;24.37;40.41;99667.56;5112197;28;20364;-77
2023/05/22 10:09:51;;;;;;;4.85;3.78;;;;;;;24.43;41.14;99674.09;5112474;28;20110;-78
2023/05/22 10:12:20;;;;;;;5.07;4.05;;;;;;;24.47;39.99;99680.75;5112495;28;20024;-78
2023/05/22 10:14:46;;;;;;;7.50;3.42;;;;;;;24.58;39.53;99680.47;5112076;28;20311;-76
2023/05/22 10:17:12;;;;;;;3.63;3.08;;;;;;;24.61;39.65;99689.00;5111881;28;20099;-75
2023/05/22 10:19:40;;;;;;;4.90;3.60;;;;;;;24.38;39.92;99670.06;5111902;28;20035;-75
2023/05/22 10:22:06;;;;;;;4.65;3.15;;;;;;;24.40;40.48;99680.59;5112127;28;20080;-75
2023/05/22 10:24:32;;;;;;;3.03;2.80;;;;;;;24.46;41.27;99687.09;5111862;28;20034;-76
2023/05/22 10:26:58;;;;;;;4.57;3.25;;;;;;;24.25;40.24;99653.69;5115918;28;20016;-75
2023/05/22 10:29:29;;;;;;;5.07;3.47;;;;;;;24.24;40.87;99646.69;5115663;28;20038;-75
2023/05/22 10:32:03;;;;;;;4.93;3.38;;;;;;;24.47;40.65;99691.41;5115788;28;20023;-75
2023/05/22 10:34:31;;;;;;;4.28;3.13;;;;;;;24.54;39.28;99695.13;5115703;28;20463;-75
2023/05/22 10:37:13;;;;;;;3.78;3.33;;;;;;;24.48;39.04;99680.63;5115772;28;20114;-75
2023/05/22 10:39:53;;;;;;;3.92;3.50;;;;;;;24.36;38.85;99665.88;5115498;28;20424;-75
2023/05/22 10:42:18;;;;;;;4.22;3.80;;;;;;;24.47;38.96;99686.91;5115597;28;20034;-75
2023/05/22 10:44:47;;;;;;;5.60;3.42;;;;;;;24.55;40.01;99680.78;5115946;28;20024;-75
2023/05/22 10:47:13;;;;;;;3.90;3.17;;;;;;;24.46;39.40;99665.78;5115476;28;20491;-75
2023/05/22 10:49:45;;;;;;;6.07;3.47;;;;;;;24.25;40.43;99656.34;5115239;28;20063;-75
2023/05/22 10:52:13;;;;;;;4.65;3.47;;;;;;;24.45;40.32;99680.94;5115412;28;20586;-75
2023/05/22 10:54:44;;;;;;;4.80;3.47;;;;;;;24.29;40.21;99672.84;5115082;28;20031;-75
2023/05/22 10:57:15;;;;;;;4.53;3.55;;;;;;;24.13;39.67;99678.91;5115489;28;20103;-75
2023/05/22 10:59:41;;;;;;;4.20;3.40;;;;;;;23.92;39.50;99649.19;5115125;28;20031;-76
2023/05/22 11:02:20;;;;;;;5.70;3.70;;;;;;;23.93;39.23;99666.81;5115214;28;20042;-75
2023/05/22 11:04:46;;;;;;;6.45;3.97;;;;;;;23.82;40.39;99633.34;5115278;28;20055;-75
2023/05/22 11:07:14;;;;;;;5.13;3.42;;;;;;;24.04;39.45;99682.50;5115210;28;20050;-77
2023/05/22 11:09:42;;;;;;;7.88;3.72;;;;;;;23.93;39.39;99654.31;5114961;28;20034;-75
2023/05/22 11:12:23;;;;;;;3.63;3.33;;;;;;;24.17;39.71;99674.94;5115051;28;20134;-75
2023/05/22 11:14:57;;;;;;;5.15;3.35;;;;;;;24.10;39.90;99657.91;5114878;28;20428;-75
2023/05/22 11:17:27;;;;;;;5.82;3.72;;;;;;;24.08;39.93;99642.13;5114674;28;20024;-75
2023/05/22 11:20:06;;;;;;;5.47;3.30;;;;;;;24.03;39.83;99640.94;5114726;28;20031;-75
2023/05/22 11:22:42;;;;;;;4.65;3.67;;;;;;;24.01;40.34;99630.44;5114657;28;20502;-75
2023/05/22 11:25:16;;;;;;;5.55;3.40;;;;;;;24.00;41.30;99652.72;5114888;28;20114;-75
2023/05/22 11:27:42;;;;;;;3.80;3.20;;;;;;;23.96;39.49;99632.75;5078369;28;20078;-75
2023/05/22 11:30:09;;;;;;;4.65;3.70;;;;;;;24.02;39.94;99639.25;5114652;28;20041;-75
2023/05/22 11:32:38;;;;;;;5.57;4.15;;;;;;;24.07;39.32;99636.97;5114632;28;20051;-75